Saturday, March 28, 2015, 9:04 PM EDT

KOFP, Hanover County Municipal

Location: Ashland, VA, United States Lat: 37.7
Local Time: 9:04 PM EDT ( 1:04 GMT) Lon: -77.433
Time Zone: US/Eastern Elev: 203 ft

Show me the last for .
Show Decoded

2015-03-28 19:54 METAR KOFP 282354Z AUTO 34006KT 10SM CLR 00/M14 A3019 RMK AO2 SLP223 T00001144
                 10050 20000 51043 =
2015-03-28 18:54 METAR KOFP 282254Z AUTO 32012G20KT 300V360 10SM CLR 01/M14 A3014 RMK AO2 SLP209
                 T00111144 =
2015-03-28 17:54 METAR KOFP 282154Z AUTO 34011G24KT 300V010 10SM CLR 03/M13 A3010 RMK AO2 SLP195
                 T00281128 =
2015-03-28 16:54 METAR KOFP 282054Z AUTO VRB05KT 10SM BKN080 04/M12 A3006 RMK AO2 SLP180
                 T00441122 53007 =
2015-03-28 15:54 METAR KOFP 281954Z AUTO 29011G18KT 250V330 10SM BKN075 05/M11 A3004 RMK AO2 PK
                 WND 30028/1943 SLP173 T00501111 =
2015-03-28 14:54 METAR KOFP 281854Z AUTO 32012G18KT 10SM BKN070 05/M11 A3003 RMK AO2 PK WND
                 30026/1757 SLP171 T00501106 =
2015-03-28 13:54 METAR KOFP 281754Z AUTO 30011G22KT 10SM BKN065 03/M11 A3004 RMK AO2 SLP172
                 T00331106 10044 20006 53000 =
2015-03-28 12:54 METAR KOFP 281654Z AUTO 30015G22KT 10SM OVC075 03/M11 A3004 RMK AO2 SLP172
                 T00281111 =
2015-03-28 11:54 METAR KOFP 281554Z AUTO 33009G21KT 300V010 10SM BKN055 OVC075 02/M09 A3003 RMK
                 AO2 SLP169 T00221094 =
2015-03-28 10:54 METAR KOFP 281454Z AUTO 32012G20KT 10SM OVC060 02/M11 A3004 RMK AO2 SLP172
                 T00171106 51020 =
2015-03-28 09:54 METAR KOFP 281354Z AUTO 32009G16KT 280V010 10SM BKN060 OVC075 01/M11 A3003 RMK
                 AO2 SLP170 T00111106 =
2015-03-28 08:54 METAR KOFP 281254Z AUTO 34010G20KT 300V020 10SM BKN055 OVC070 01/M09 A3000 RMK
                 AO2 SLP161 T00061094 =
2015-03-28 07:54 METAR KOFP 281154Z AUTO VRB05KT 10SM BKN060 01/M08 A2998 RMK AO2 SLP152 70035
                 T00061078 10050 20000 51029 =
2015-03-28 06:54 METAR KOFP 281054Z AUTO VRB06KT 10SM SCT075 BKN110 01/M08 A2995 RMK AO2 SLP143
                 T00061083 =
2015-03-28 05:54 METAR KOFP 280954Z AUTO 33010KT 300V010 10SM BKN080 OVC100 01/M08 A2992 RMK AO2
                 SLP132 T00111078 =
2015-03-28 04:54 METAR KOFP 280854Z AUTO 34007G15KT 10SM OVC055 02/M06 A2989 RMK AO2 SLP122
                 T00221061 53011 =
2015-03-28 01:54 METAR KOFP 280554Z AUTO 34006KT 10SM OVC065 04/M03 A2986 RMK AO2 SLP111
                 T00441033 10056 20033 53010 =
2015-03-27 23:54 METAR KOFP 280354Z AUTO VRB04KT 9SM SCT065 04/01 A2984 RMK AO2 SLP105 T00390011
                 =
2015-03-27 22:54 METAR KOFP 280254Z AUTO 00000KT 7SM CLR 04/03 A2982 RMK AO2 SLP099 T00440028
                 51008 =
2015-03-27 21:54 METAR KOFP 280154Z AUTO 00000KT 6SM BR FEW100 04/03 A2982 RMK AO2 SLP097
                 T00440028 =

Support USWX by starting your Amazon purchase here.